createdAt,value
2022-09-14T00:01:24.153Z,100100.19
2022-09-14T00:03:52.221Z,100100.34
2022-09-14T00:06:18.655Z,100085.13
2022-09-14T00:08:44.844Z,100078.88
2022-09-14T00:11:14.606Z,100085.31
2022-09-14T00:13:41.325Z,100092.50
2022-09-14T00:16:10.044Z,100100.38
2022-09-14T00:18:36.268Z,100090.16
2022-09-14T00:21:02.808Z,100099.25
2022-09-14T00:23:29.105Z,100088.31
2022-09-14T00:25:55.307Z,100084.94
2022-09-14T00:28:21.502Z,100086.22
2022-09-14T00:30:47.701Z,100079.69
2022-09-14T00:33:13.906Z,100074.66
2022-09-14T00:35:40.104Z,100063.34
2022-09-14T00:38:06.294Z,100057.28
2022-09-14T00:40:32.503Z,100063.09
2022-09-14T00:42:58.688Z,100051.25
2022-09-14T00:45:24.939Z,100054.28
2022-09-14T00:47:51.193Z,100050.94
2022-09-14T00:50:17.704Z,100045.50
2022-09-14T00:52:44.650Z,100046.00
2022-09-14T00:55:11.883Z,100049.69
2022-09-14T00:57:39.390Z,100049.78
2022-09-14T01:00:06.510Z,100059.22
2022-09-14T01:02:32.766Z,100066.31
2022-09-14T01:04:58.998Z,100066.50
2022-09-14T01:07:44.101Z,100049.69
2022-09-14T01:10:16.201Z,100050.47
2022-09-14T01:12:58.588Z,100047.56
2022-09-14T01:16:03.428Z,100041.81
2022-09-14T01:18:32.804Z,100034.13
2022-09-14T01:21:03.620Z,100027.25
2022-09-14T01:23:29.758Z,100023.31
2022-09-14T01:26:07.195Z,100012.78
2022-09-14T01:28:40.489Z,100012.94
2022-09-14T01:31:09.098Z,100007.59
2022-09-14T01:33:37.244Z,99996.88
2022-09-14T01:36:03.555Z,99994.81
2022-09-14T01:38:37.753Z,99989.84
2022-09-14T01:41:04.641Z,99994.16
2022-09-14T01:43:36.814Z,100000.56
2022-09-14T01:46:04.823Z,100004.69
2022-09-14T01:48:32.409Z,99996.63
2022-09-14T01:50:58.622Z,99998.47
2022-09-14T01:53:38.834Z,99992.81
2022-09-14T01:56:06.840Z,100006.00
2022-09-14T01:58:34.689Z,99997.09
2022-09-14T02:01:01.321Z,100003.91
2022-09-14T02:03:29.490Z,99990.78
2022-09-14T02:05:57.497Z,99990.28
2022-09-14T02:08:24.925Z,100001.75
2022-09-14T02:10:51.131Z,99993.78
2022-09-14T02:13:17.327Z,99985.16
2022-09-14T02:15:43.513Z,99964.22
2022-09-14T02:18:09.709Z,99964.69
2022-09-14T02:20:52.610Z,99962.44
2022-09-14T02:23:18.807Z,99955.38
2022-09-14T02:25:45.317Z,99956.75
2022-09-14T02:28:11.519Z,99964.13
2022-09-14T02:30:48.232Z,99966.00
2022-09-14T02:33:37.815Z,99975.53
2022-09-14T02:36:22.810Z,99984.78
2022-09-14T02:38:51.128Z,100005.22
2022-09-14T02:41:25.056Z,99995.00
2022-09-14T02:43:54.310Z,99983.81
2022-09-14T02:46:29.079Z,99999.63
2022-09-14T02:49:14.093Z,99997.78
2022-09-14T02:51:41.898Z,99997.81
2022-09-14T02:54:08.055Z,100001.19
2022-09-14T02:56:34.273Z,99999.06
2022-09-14T02:59:00.470Z,100002.75
2022-09-14T03:01:26.728Z,99997.72
2022-09-14T03:03:53.022Z,100000.63
2022-09-14T03:06:19.224Z,99995.66
2022-09-14T03:08:45.421Z,99984.88
2022-09-14T03:11:11.623Z,99992.75
2022-09-14T03:13:37.835Z,99996.38
2022-09-14T03:16:04.852Z,99999.22
2022-09-14T03:18:31.080Z,99990.81
2022-09-14T03:21:07.021Z,99989.78
2022-09-14T03:23:49.436Z,99990.03
2022-09-14T03:26:16.401Z,99989.50
2022-09-14T03:28:42.600Z,99989.00
2022-09-14T03:31:09.645Z,99985.28
2022-09-14T03:33:35.945Z,99987.63
2022-09-14T03:36:09.068Z,99967.91
2022-09-14T03:38:35.264Z,99967.13
2022-09-14T03:41:01.471Z,99965.31
2022-09-14T03:43:27.675Z,99971.03
2022-09-14T03:45:53.870Z,99965.56
2022-09-14T03:48:20.074Z,99968.78
2022-09-14T03:50:46.268Z,99984.78
2022-09-14T03:53:12.474Z,99978.75
2022-09-14T03:55:39.745Z,99977.41
2022-09-14T03:58:05.939Z,99977.91
2022-09-14T04:00:32.130Z,99971.88
2022-09-14T04:02:59.670Z,99969.97
2022-09-14T04:05:25.889Z,99964.25
2022-09-14T04:07:52.093Z,99958.22
2022-09-14T04:10:18.297Z,99953.16
2022-09-14T04:12:44.481Z,99948.19
2022-09-14T04:15:10.687Z,99941.88
2022-09-14T04:17:36.879Z,99944.78
2022-09-14T04:20:03.154Z,99939.25
2022-09-14T04:22:29.351Z,99940.63
2022-09-14T04:24:55.561Z,99949.28
2022-09-14T04:27:21.747Z,99944.50
2022-09-14T04:29:50.696Z,99942.16
2022-09-14T04:32:17.031Z,99928.56
2022-09-14T04:34:43.232Z,99921.06
2022-09-14T04:37:09.430Z,99924.00
2022-09-14T04:39:35.624Z,99924.97
2022-09-14T04:42:01.828Z,99927.00
2022-09-14T04:44:28.033Z,99909.97
2022-09-14T04:46:54.304Z,99903.19
2022-09-14T04:49:20.593Z,99897.88
2022-09-14T04:51:46.780Z,99892.19
2022-09-14T04:54:13.656Z,99887.97
2022-09-14T04:56:39.908Z,99894.81
2022-09-14T04:59:06.204Z,99888.25
2022-09-14T05:01:42.600Z,99891.38
2022-09-14T05:04:08.928Z,99883.72
2022-09-14T05:06:35.576Z,99887.06
2022-09-14T05:09:02.100Z,99884.75
2022-09-14T05:11:29.372Z,99897.28
2022-09-14T05:13:56.028Z,99879.34
2022-09-14T05:16:22.296Z,99877.53
2022-09-14T05:18:48.729Z,99868.69
2022-09-14T05:21:15.650Z,99877.72
2022-09-14T05:23:41.850Z,99880.63
2022-09-14T05:26:08.058Z,99885.09
2022-09-14T05:28:34.422Z,99904.34
2022-09-14T05:31:03.692Z,99890.19
2022-09-14T05:33:29.949Z,99908.03
2022-09-14T05:35:59.434Z,99893.13
2022-09-14T05:38:25.647Z,99886.97
2022-09-14T05:40:53.949Z,99871.06
2022-09-14T05:43:20.177Z,99884.19
2022-09-14T05:45:46.396Z,99896.53
2022-09-14T05:48:12.596Z,99912.19
2022-09-14T05:50:38.821Z,99915.84
2022-09-14T05:53:05.009Z,99920.06
2022-09-14T05:55:31.218Z,99923.28
2022-09-14T05:57:57.410Z,99928.91
2022-09-14T06:00:23.614Z,99938.63
2022-09-14T06:02:50.157Z,99937.47
2022-09-14T06:05:16.427Z,99937.97
2022-09-14T06:07:42.769Z,99934.47
2022-09-14T06:10:09.049Z,99937.19
2022-09-14T06:12:35.250Z,99932.72
2022-09-14T06:15:01.547Z,99933.50
2022-09-14T06:17:31.141Z,99943.94
2022-09-14T06:20:01.021Z,99937.31
2022-09-14T06:22:30.643Z,99935.03
2022-09-14T06:24:56.850Z,99940.78
2022-09-14T06:27:23.044Z,99942.53
2022-09-14T06:29:49.257Z,99933.66
2022-09-14T06:32:15.458Z,99937.06
2022-09-14T06:34:41.677Z,99938.53
2022-09-14T06:37:07.922Z,99947.69
2022-09-14T06:39:34.131Z,99936.75
2022-09-14T06:42:00.330Z,99941.25
2022-09-14T06:44:26.526Z,99947.00
2022-09-14T06:46:52.723Z,99949.81
2022-09-14T06:49:18.927Z,99946.91
2022-09-14T06:51:45.139Z,99946.94
2022-09-14T06:54:11.638Z,99935.47
2022-09-14T06:56:38.374Z,99941.34
2022-09-14T06:59:08.281Z,99950.56
2022-09-14T07:01:34.490Z,99922.34
2022-09-14T07:04:00.704Z,99932.91
2022-09-14T07:06:31.207Z,99901.81
2022-09-14T07:08:57.520Z,99877.63
2022-09-14T07:11:25.030Z,99835.19
2022-09-14T07:13:51.285Z,99810.25
2022-09-14T07:16:17.488Z,99797.63
2022-09-14T07:18:43.762Z,99820.25
2022-09-14T07:21:16.724Z,99829.47
2022-09-14T07:23:43.290Z,99814.09
2022-09-14T07:26:10.291Z,99799.13
2022-09-14T07:28:36.571Z,99823.94
2022-09-14T07:31:03.008Z,99798.44
2022-09-14T07:33:29.470Z,99799.81
2022-09-14T07:36:01.918Z,99784.28
2022-09-14T07:38:48.501Z,99768.97
2022-09-14T07:41:14.318Z,99755.50
2022-09-14T07:43:40.519Z,99763.69
2022-09-14T07:46:06.782Z,99718.09
2022-09-14T07:48:33.966Z,99685.19
2022-09-14T07:51:00.829Z,99646.69
2022-09-14T07:53:27.028Z,99620.16
2022-09-14T07:55:53.230Z,99621.69
2022-09-14T07:58:19.434Z,99636.03
2022-09-14T08:00:45.632Z,99633.38
2022-09-14T08:03:11.840Z,99706.94
2022-09-14T08:05:38.035Z,99748.19
2022-09-14T08:08:04.230Z,99780.03
2022-09-14T08:10:30.441Z,99774.41
2022-09-14T08:12:56.639Z,99778.47
2022-09-14T08:15:27.712Z,99806.69
2022-09-14T08:17:54.682Z,99769.94
2022-09-14T08:20:20.885Z,99707.31
2022-09-14T08:22:47.080Z,99622.28
2022-09-14T08:25:13.290Z,99576.91
2022-09-14T08:27:39.486Z,99631.13
2022-09-14T08:30:05.964Z,99560.66
2022-09-14T08:32:32.153Z,99510.63
2022-09-14T08:34:58.378Z,99609.94
2022-09-14T08:37:24.575Z,99677.97
2022-09-14T08:39:51.784Z,99637.09
2022-09-14T08:42:18.464Z,99554.78
2022-09-14T08:44:55.359Z,99629.09
2022-09-14T08:47:51.650Z,99645.00
2022-09-14T08:50:19.038Z,99695.91
2022-09-14T08:52:48.965Z,99712.19
2022-09-14T08:55:21.340Z,99648.47
2022-09-14T08:57:47.495Z,99647.56
2022-09-14T09:00:23.300Z,99650.69
2022-09-14T09:03:03.632Z,99679.75
2022-09-14T09:05:44.237Z,99723.88
2022-09-14T09:08:18.327Z,99751.97
2022-09-14T09:10:44.535Z,99720.75
2022-09-14T09:13:12.206Z,99785.16
2022-09-14T09:15:45.729Z,99694.00
2022-09-14T09:18:13.372Z,99695.00
2022-09-14T09:20:40.668Z,99708.56
2022-09-14T09:23:14.027Z,99721.91
2022-09-14T09:25:58.816Z,99758.88
2022-09-14T09:28:25.464Z,99710.75
2022-09-14T09:30:52.346Z,99745.53
2022-09-14T09:33:20.376Z,99775.16
2022-09-14T09:35:46.599Z,99778.41
2022-09-14T09:38:13.695Z,99699.81
2022-09-14T09:40:40.645Z,99726.34
2022-09-14T09:43:06.782Z,99695.50
2022-09-14T09:45:46.226Z,99624.72
2022-09-14T09:48:12.426Z,99508.66
2022-09-14T09:50:38.680Z,99467.16
2022-09-14T09:53:06.937Z,99502.41
2022-09-14T09:55:37.440Z,99473.81
2022-09-14T09:58:22.458Z,99488.16
2022-09-14T10:00:55.263Z,99513.09
2022-09-14T10:03:26.662Z,99401.16
2022-09-14T10:05:59.466Z,99401.34
2022-09-14T10:08:25.673Z,99273.38
2022-09-14T10:10:51.872Z,99182.81
2022-09-14T10:13:38.187Z,99157.53
2022-09-14T10:16:05.834Z,99140.03
2022-09-14T10:18:32.046Z,99228.81
2022-09-14T10:20:58.205Z,99147.47
2022-09-14T10:23:25.438Z,99232.09
2022-09-14T10:25:52.446Z,99333.81
2022-09-14T10:28:22.677Z,99267.72
2022-09-14T10:31:12.610Z,99271.88
2022-09-14T10:33:38.844Z,99314.03
2022-09-14T10:36:05.085Z,99321.41
2022-09-14T10:38:31.255Z,99125.03
2022-09-14T10:41:16.253Z,99020.44
2022-09-14T10:43:53.307Z,99163.34
2022-09-14T10:46:25.413Z,98889.78
2022-09-14T10:49:11.872Z,98802.31
2022-09-14T10:51:40.939Z,98864.06
2022-09-14T10:54:30.160Z,99077.09
2022-09-14T10:57:01.028Z,99142.91
2022-09-14T10:59:40.604Z,99262.81
2022-09-14T11:02:19.221Z,99343.56
2022-09-14T11:04:52.453Z,99310.72
2022-09-14T11:07:18.603Z,99382.22
2022-09-14T11:09:53.649Z,99499.78
2022-09-14T11:12:25.939Z,99470.63
2022-09-14T11:14:59.317Z,99453.03
2022-09-14T11:17:31.746Z,99481.28
2022-09-14T11:19:58.106Z,99576.25
2022-09-14T11:22:46.666Z,99658.84
2022-09-14T11:25:24.358Z,99761.38
2022-09-14T11:27:50.502Z,99809.66
2022-09-14T11:30:18.048Z,99803.47
2022-09-14T11:32:52.568Z,99785.63
2022-09-14T11:35:37.412Z,99805.81
2022-09-14T11:38:17.051Z,99684.91
2022-09-14T11:40:45.150Z,99654.16
2022-09-14T11:43:12.751Z,99689.25
2022-09-14T11:45:43.733Z,99668.59
2022-09-14T11:48:40.727Z,99601.69
2022-09-14T11:51:00.161Z,99547.16
2022-09-14T11:53:26.354Z,99522.09
2022-09-14T11:55:52.574Z,99530.88
2022-09-14T11:58:20.097Z,99467.91
2022-09-14T12:00:58.510Z,99389.94
2022-09-14T12:03:46.478Z,99338.47
2022-09-14T12:06:28.253Z,99392.16
2022-09-14T12:08:54.446Z,99452.47
2022-09-14T12:11:24.451Z,99397.91
2022-09-14T12:13:58.177Z,99392.22
2022-09-14T12:16:24.531Z,99300.25
2022-09-14T12:18:55.017Z,99264.09
2022-09-14T12:21:22.245Z,99381.19
2022-09-14T12:23:49.218Z,99424.69
2022-09-14T12:26:18.428Z,99427.19
2022-09-14T12:28:45.710Z,99525.88
2022-09-14T12:31:13.030Z,99662.41
2022-09-14T12:33:39.254Z,99692.81
2022-09-14T12:36:20.709Z,99722.44
2022-09-14T12:38:49.682Z,99713.44
2022-09-14T12:41:18.662Z,99685.22
2022-09-14T12:43:44.819Z,99745.88
2022-09-14T12:46:20.107Z,99715.91
2022-09-14T12:48:46.356Z,99737.94
2022-09-14T12:51:19.487Z,99717.75
2022-09-14T12:53:45.684Z,99741.47
2022-09-14T12:56:19.635Z,99735.44
2022-09-14T12:58:49.199Z,99768.16
2022-09-14T13:01:15.465Z,99809.72
2022-09-14T13:03:44.679Z,99820.13
2022-09-14T13:06:11.930Z,99855.63
2022-09-14T13:08:38.133Z,99828.59
2022-09-14T13:11:04.333Z,99863.16
2022-09-14T13:13:30.934Z,99923.63
2022-09-14T13:16:01.312Z,99967.66
2022-09-14T13:18:27.509Z,100016.00
2022-09-14T13:20:54.547Z,100021.94
2022-09-14T13:23:21.221Z,100059.31
2022-09-14T13:25:47.426Z,100090.66
2022-09-14T13:28:14.532Z,100047.22
2022-09-14T13:30:40.900Z,99987.06
2022-09-14T13:33:07.125Z,99950.78
2022-09-14T13:35:38.081Z,99933.41
2022-09-14T13:38:08.276Z,99943.31
2022-09-14T13:40:34.566Z,99952.63
2022-09-14T13:43:00.823Z,99965.66
2022-09-14T13:45:27.041Z,99964.19
2022-09-14T13:47:53.240Z,99962.47
2022-09-14T13:50:19.956Z,99937.97
2022-09-14T13:53:03.379Z,99947.00
2022-09-14T13:55:33.019Z,99920.06
2022-09-14T13:58:05.713Z,99846.56
2022-09-14T14:00:32.490Z,99806.91
2022-09-14T14:02:59.674Z,99800.13
2022-09-14T14:05:26.824Z,99811.59
2022-09-14T14:07:53.518Z,99811.88
2022-09-14T14:10:30.693Z,99825.63
2022-09-14T14:12:56.907Z,99865.47
2022-09-14T14:15:23.044Z,99883.59
2022-09-14T14:17:49.261Z,99875.34
2022-09-14T14:20:34.231Z,99880.78
2022-09-14T14:23:02.278Z,99929.50
2022-09-14T14:25:29.732Z,99953.47
2022-09-14T14:27:59.781Z,99947.69
2022-09-14T14:30:25.980Z,99932.19
2022-09-14T14:32:52.854Z,99903.34
2022-09-14T14:35:20.053Z,99889.50
2022-09-14T14:37:46.274Z,99886.09
2022-09-14T14:40:12.617Z,99868.16
2022-09-14T14:42:38.994Z,99870.09
2022-09-14T14:45:05.482Z,99897.06
2022-09-14T14:47:31.818Z,99887.09
2022-09-14T14:49:58.013Z,99876.63
2022-09-14T14:52:24.224Z,99866.91
2022-09-14T14:54:50.425Z,99864.84
2022-09-14T14:57:16.723Z,99853.53
2022-09-14T14:59:42.965Z,99853.53
2022-09-14T15:02:09.216Z,99875.66
2022-09-14T15:04:35.422Z,99835.41
2022-09-14T15:07:01.625Z,99831.69
2022-09-14T15:09:28.224Z,99838.63
2022-09-14T15:11:54.433Z,99870.84
2022-09-14T15:14:24.932Z,99863.41
2022-09-14T15:16:53.044Z,99853.06
2022-09-14T15:19:19.316Z,99846.41
2022-09-14T15:21:45.704Z,99845.34
2022-09-14T15:24:11.942Z,99848.47
2022-09-14T15:26:38.241Z,99852.34
2022-09-14T15:29:04.633Z,99844.94
2022-09-14T15:31:30.919Z,99845.88
2022-09-14T15:33:57.141Z,99833.00
2022-09-14T15:36:39.953Z,99817.69
2022-09-14T15:39:06.295Z,99813.19
2022-09-14T15:41:32.494Z,99801.56
2022-09-14T15:43:58.696Z,99778.94
2022-09-14T15:46:24.904Z,99758.94
2022-09-14T15:48:51.105Z,99776.59
2022-09-14T15:51:17.306Z,99777.44
2022-09-14T15:53:43.576Z,99776.06
2022-09-14T15:56:10.182Z,99796.06
2022-09-14T15:58:36.386Z,99789.38
2022-09-14T16:01:09.166Z,99788.31
2022-09-14T16:03:35.454Z,99750.16
2022-09-14T16:06:01.659Z,99729.09
2022-09-14T16:08:27.869Z,99718.25
2022-09-14T16:11:00.438Z,99722.44
2022-09-14T16:13:26.658Z,99677.19
2022-09-14T16:16:01.811Z,99660.59
2022-09-14T16:18:28.033Z,99663.22
2022-09-14T16:20:54.234Z,99688.06
2022-09-14T16:23:20.826Z,99699.66
2022-09-14T16:25:57.073Z,99728.28
2022-09-14T16:28:25.427Z,99735.53
2022-09-14T16:31:02.776Z,99754.59
2022-09-14T16:33:29.307Z,99782.31
2022-09-14T16:36:02.022Z,99784.47
2022-09-14T16:38:29.349Z,99798.22
2022-09-14T16:40:59.130Z,99775.91
2022-09-14T16:43:25.330Z,99792.19
2022-09-14T16:46:01.662Z,99782.41
2022-09-14T16:48:27.935Z,99792.19
2022-09-14T16:50:54.290Z,99815.09
2022-09-14T16:53:20.486Z,99846.53
2022-09-14T16:55:46.706Z,99880.13
2022-09-14T16:58:12.899Z,99873.56
2022-09-14T17:00:42.385Z,99879.25
2022-09-14T17:03:10.370Z,99890.97
2022-09-14T17:05:36.576Z,99877.91
2022-09-14T17:08:02.774Z,99865.06
2022-09-14T17:10:28.976Z,99846.91
2022-09-14T17:12:55.172Z,99840.41
2022-09-14T17:15:21.357Z,99843.06
2022-09-14T17:17:47.562Z,99837.28
2022-09-14T17:20:13.773Z,99830.44
2022-09-14T17:22:39.982Z,99830.44
2022-09-14T17:25:06.335Z,99826.88
2022-09-14T17:27:32.546Z,99822.22
2022-09-14T17:29:58.750Z,99828.84
2022-09-14T17:32:24.983Z,99824.34
2022-09-14T17:34:51.179Z,99817.53
2022-09-14T17:37:17.380Z,99813.16
2022-09-14T17:39:43.658Z,99816.56
2022-09-14T17:42:09.876Z,99814.84
2022-09-14T17:44:36.070Z,99827.03
2022-09-14T17:47:02.306Z,99808.69
2022-09-14T17:49:28.544Z,99821.09
2022-09-14T17:51:54.754Z,99827.09
2022-09-14T17:54:20.967Z,99822.66
2022-09-14T17:56:47.169Z,99814.47
2022-09-14T17:59:14.360Z,99820.59
2022-09-14T18:01:40.555Z,99824.00
2022-09-14T18:04:08.530Z,99825.56
2022-09-14T18:06:35.729Z,99820.31
2022-09-14T18:09:03.564Z,99812.41
2022-09-14T18:11:29.766Z,99810.66
2022-09-14T18:13:55.973Z,99804.63
2022-09-14T18:16:22.440Z,99796.13
2022-09-14T18:18:48.702Z,99785.63
2022-09-14T18:21:14.913Z,99772.75
2022-09-14T18:23:41.105Z,99761.00
2022-09-14T18:26:07.340Z,99764.69
2022-09-14T18:28:33.761Z,99753.69
2022-09-14T18:31:00.561Z,99741.16
2022-09-14T18:33:27.008Z,99745.00
2022-09-14T18:35:53.384Z,99735.59
2022-09-14T18:38:19.577Z,99742.09
2022-09-14T18:40:45.774Z,99740.25
2022-09-14T18:43:11.988Z,99741.97
2022-09-14T18:45:38.193Z,99733.63
2022-09-14T18:48:04.406Z,99734.38
2022-09-14T18:50:30.602Z,99727.88
2022-09-14T18:52:56.813Z,99737.63
2022-09-14T18:55:23.004Z,99755.25
2022-09-14T18:57:49.200Z,99750.28
2022-09-14T19:00:18.495Z,99755.06
2022-09-14T19:02:45.043Z,99755.84
2022-09-14T19:05:11.431Z,99761.13
2022-09-14T19:07:39.342Z,99746.41
2022-09-14T19:10:08.717Z,99750.88
2022-09-14T19:12:37.638Z,99747.44
2022-09-14T19:15:03.985Z,99740.91
2022-09-14T19:17:30.198Z,99757.19
2022-09-14T19:19:56.390Z,99749.59
2022-09-14T19:22:22.597Z,99746.50
2022-09-14T19:24:48.789Z,99749.91
2022-09-14T19:27:15.093Z,99758.59
2022-09-14T19:29:41.291Z,99751.44
2022-09-14T19:32:07.488Z,99747.88
2022-09-14T19:34:33.690Z,99740.47
2022-09-14T19:36:59.899Z,99736.28
2022-09-14T19:39:26.096Z,99738.41
2022-09-14T19:41:52.312Z,99728.22
2022-09-14T19:44:18.524Z,99731.31
2022-09-14T19:46:44.799Z,99718.78
2022-09-14T19:49:14.997Z,99727.72
2022-09-14T19:51:41.273Z,99733.00
2022-09-14T19:54:08.222Z,99732.00
2022-09-14T19:56:34.442Z,99725.47
2022-09-14T19:59:00.972Z,99736.00
2022-09-14T20:01:27.624Z,99729.00
2022-09-14T20:03:53.866Z,99738.25
2022-09-14T20:06:29.982Z,99738.56
2022-09-14T20:08:56.499Z,99737.47
2022-09-14T20:11:23.228Z,99735.16
2022-09-14T20:13:49.431Z,99738.56
2022-09-14T20:16:19.713Z,99731.75
2022-09-14T20:18:46.242Z,99733.78
2022-09-14T20:21:13.242Z,99728.31
2022-09-14T20:23:52.425Z,99739.66
2022-09-14T20:26:25.930Z,99734.38
2022-09-14T20:28:52.157Z,99738.34
2022-09-14T20:31:18.427Z,99747.00
2022-09-14T20:33:44.711Z,99738.63
2022-09-14T20:36:11.598Z,99720.84
2022-09-14T20:38:41.234Z,99722.13
2022-09-14T20:41:07.876Z,99712.19
2022-09-14T20:43:34.542Z,99713.56
2022-09-14T20:46:01.390Z,99713.84
2022-09-14T20:48:27.835Z,99701.59
2022-09-14T20:50:54.060Z,99708.47
2022-09-14T20:53:20.490Z,99703.06
2022-09-14T20:55:46.690Z,99716.78
2022-09-14T20:58:12.886Z,99716.78
2022-09-14T21:00:39.089Z,99722.03
2022-09-14T21:03:05.376Z,99725.75
2022-09-14T21:05:31.720Z,99736.44
2022-09-14T21:07:57.930Z,99734.31
2022-09-14T21:10:29.084Z,99728.84
2022-09-14T21:12:55.646Z,99740.63
2022-09-14T21:15:21.847Z,99728.38
2022-09-14T21:17:48.082Z,99743.38
2022-09-14T21:20:14.282Z,99744.91
2022-09-14T21:22:40.484Z,99739.34
2022-09-14T21:25:07.126Z,99745.38
2022-09-14T21:27:33.397Z,99747.03
2022-09-14T21:29:59.819Z,99735.56
2022-09-14T21:32:26.243Z,99737.09
2022-09-14T21:34:52.444Z,99739.44
2022-09-14T21:37:18.710Z,99746.34
2022-09-14T21:39:44.910Z,99743.25
2022-09-14T21:42:11.110Z,99741.75
2022-09-14T21:44:37.303Z,99749.63
2022-09-14T21:47:03.801Z,99747.00
2022-09-14T21:49:30.092Z,99754.63
2022-09-14T21:51:56.304Z,99751.50
2022-09-14T21:54:22.490Z,99757.25
2022-09-14T21:56:48.694Z,99748.84
2022-09-14T21:59:18.777Z,99735.53
2022-09-14T22:01:45.067Z,99730.69
2022-09-14T22:04:15.102Z,99732.31
2022-09-14T22:06:41.297Z,99732.63
2022-09-14T22:09:07.546Z,99738.75
2022-09-14T22:11:34.616Z,99734.75
2022-09-14T22:14:07.607Z,99738.44
2022-09-14T22:16:34.817Z,99735.34
2022-09-14T22:19:01.469Z,99725.91
2022-09-14T22:21:28.084Z,99725.63
2022-09-14T22:23:55.151Z,99720.06
2022-09-14T22:26:21.345Z,99718.97
2022-09-14T22:28:47.915Z,99706.56
2022-09-14T22:31:14.195Z,99707.03
2022-09-14T22:33:40.496Z,99701.50
2022-09-14T22:36:06.810Z,99688.66
2022-09-14T22:38:33.964Z,99689.72
2022-09-14T22:41:04.318Z,99680.78
2022-09-14T22:43:30.614Z,99682.63
2022-09-14T22:45:56.947Z,99673.88
2022-09-14T22:48:23.209Z,99680.66
2022-09-14T22:50:51.278Z,99685.81
2022-09-14T22:53:17.506Z,99681.91
2022-09-14T22:55:43.815Z,99684.25
2022-09-14T22:58:10.597Z,99665.50
2022-09-14T23:00:37.224Z,99668.72
2022-09-14T23:03:03.428Z,99670.56
2022-09-14T23:05:29.613Z,99677.66
2022-09-14T23:07:55.818Z,99676.34
2022-09-14T23:10:22.101Z,99690.19
2022-09-14T23:12:48.329Z,99680.78
2022-09-14T23:15:14.518Z,99672.94
2022-09-14T23:17:40.724Z,99670.28
2022-09-14T23:20:07.033Z,99666.91
2022-09-14T23:22:33.237Z,99668.78
2022-09-14T23:24:59.439Z,99669.19
2022-09-14T23:27:25.918Z,99678.13
2022-09-14T23:29:52.117Z,99666.06
2022-09-14T23:32:18.331Z,99674.44
2022-09-14T23:34:44.522Z,99672.88
2022-09-14T23:37:10.730Z,99675.22
2022-09-14T23:39:36.917Z,99665.78
2022-09-14T23:42:03.130Z,99663.44
2022-09-14T23:44:29.350Z,99659.31
2022-09-14T23:46:55.563Z,99651.94
2022-09-14T23:49:21.767Z,99646.34
2022-09-14T23:51:47.969Z,99644.47
2022-09-14T23:54:14.162Z,99645.25
2022-09-14T23:56:40.365Z,99635.25
2022-09-14T23:59:07.166Z,99621.44
